Time;durP1;ratioP1;P1;durP2;ratioP2;P2;SDS_P1;SDS_P2;PMS_P1;PMS_P2;Temp;Humidity;BMP_temperature;BMP_pressure;BME280_temperature;BME280_humidity;BME280_pressure;Samples;Min_cycle;Max_cycle;Signal;HPM_P1;HPM_P2
2022/06/17 00:02:04;;;;;;;11.70;6.73;;;21.80;28.80;;;;;;5045751;28;20429;-71
2022/06/17 00:04:30;;;;;;;15.70;6.83;;;;;;;;;;5045449;28;20436;-72
2022/06/17 00:07:05;;;;;;;10.43;6.77;;;21.60;29.20;;;;;;5045361;28;20574;-71
2022/06/17 00:09:34;;;;;;;9.87;6.67;;;21.70;28.50;;;;;;5040365;28;20431;-71
2022/06/17 00:12:00;;;;;;;10.90;6.43;;;21.70;28.70;;;;;;5050098;28;20468;-71
2022/06/17 00:15:11;;;;;;;11.50;7.17;;;21.60;29.40;;;;;;5037258;28;20427;-71
2022/06/17 00:17:19;;;;;;;11.47;7.07;;;21.90;29.00;;;;;;5042108;28;20259;-71
2022/06/17 00:19:44;;;;;;;11.93;6.60;;;21.70;28.30;;;;;;5046138;28;20976;-71
2022/06/17 00:22:11;;;;;;;11.90;7.17;;;;;;;;;;5046024;28;20182;-72
2022/06/17 00:24:37;;;;;;;11.40;7.07;;;21.70;29.60;;;;;;5049087;28;20185;-71
2022/06/17 00:27:03;;;;;;;10.30;6.93;;;;;;;;;;5053154;28;20489;-72
2022/06/17 00:29:30;;;;;;;9.60;7.23;;;21.70;29.20;;;;;;5053146;28;20182;-71
2022/06/17 00:31:57;;;;;;;10.83;6.80;;;21.60;29.30;;;;;;5042769;28;20457;-71
2022/06/17 00:34:23;;;;;;;13.33;7.50;;;21.60;29.50;;;;;;5040661;28;20453;-71
2022/06/17 00:36:52;;;;;;;10.50;7.07;;;21.60;29.30;;;;;;5044705;28;20507;-72
2022/06/17 00:39:27;;;;;;;11.20;6.87;;;21.60;29.80;;;;;;5044413;28;20524;-71
2022/06/17 00:41:56;;;;;;;16.23;7.27;;;21.50;29.00;;;;;;5044713;28;20708;-71
2022/06/17 00:44:53;;;;;;;11.43;7.10;;;21.50;29.50;;;;;;5042665;28;20530;-71
2022/06/17 00:47:25;;;;;;;9.23;7.10;;;;;;;;;;5042467;28;20464;-70
2022/06/17 00:50:00;;;;;;;16.73;6.93;;;21.40;29.60;;;;;;5041150;28;20803;-71
2022/06/17 00:52:38;;;;;;;12.47;7.00;;;21.60;28.50;;;;;;5032357;28;20451;-71
2022/06/17 00:55:17;;;;;;;9.13;6.50;;;21.40;28.90;;;;;;5038013;28;20907;-70
2022/06/17 00:57:43;;;;;;;10.83;6.60;;;21.20;30.10;;;;;;5052911;28;20393;-70
2022/06/17 01:00:16;;;;;;;9.40;6.87;;;21.10;30.00;;;;;;5044152;28;20440;-70
2022/06/17 01:02:49;;;;;;;13.87;6.63;;;21.40;29.80;;;;;;5042724;28;20438;-71
2022/06/17 01:05:16;;;;;;;12.03;7.20;;;21.30;30.00;;;;;;5046492;28;20439;-71
2022/06/17 01:07:47;;;;;;;8.10;6.33;;;21.20;29.20;;;;;;5043868;28;20933;-71
2022/06/17 01:10:16;;;;;;;13.10;7.20;;;21.10;30.70;;;;;;5043054;28;20466;-71
2022/06/17 01:13:03;;;;;;;9.97;6.57;;;21.40;28.00;;;;;;5041678;28;20991;-70
2022/06/17 01:15:31;;;;;;;12.00;6.67;;;21.40;29.30;;;;;;5043664;28;20531;-71
2022/06/17 01:17:57;;;;;;;11.63;6.77;;;21.20;28.90;;;;;;5050145;28;20431;-71
2022/06/17 01:20:25;;;;;;;9.27;6.97;;;21.10;30.00;;;;;;5044835;28;20433;-70
2022/06/17 01:23:13;;;;;;;11.30;6.60;;;21.00;29.60;;;;;;5041487;28;20808;-70
2022/06/17 01:25:44;;;;;;;12.97;6.20;;;21.00;28.90;;;;;;5040635;28;20606;-70
2022/06/17 01:28:13;;;;;;;11.90;6.27;;;21.30;27.60;;;;;;5049120;28;21030;-71
2022/06/17 01:30:44;;;;;;;7.53;6.07;;;21.10;29.60;;;;;;5046244;28;20418;-70
2022/06/17 01:33:13;;;;;;;10.30;6.30;;;20.90;29.70;;;;;;5041894;28;20577;-72
2022/06/17 01:36:05;;;;;;;10.53;6.80;;;20.90;29.40;;;;;;5040322;28;20450;-70
2022/06/17 01:38:32;;;;;;;10.20;6.60;;;20.80;30.00;;;;;;5043094;28;20431;-70
2022/06/17 01:41:00;;;;;;;15.03;6.93;;;20.50;30.20;;;;;;5035123;28;20418;-70
2022/06/17 01:43:35;;;;;;;9.73;6.93;;;20.50;30.70;;;;;;5037842;28;20447;-70
2022/06/17 01:46:16;;;;;;;11.93;6.87;;;20.60;31.80;;;;;;5039927;28;20448;-71
2022/06/17 01:48:48;;;;;;;13.50;7.23;;;20.50;31.80;;;;;;5044963;28;20491;-70
2022/06/17 01:51:15;;;;;;;10.50;6.90;;;20.60;32.00;;;;;;5039192;28;20485;-71
2022/06/17 01:53:45;;;;;;;14.47;8.10;;;20.60;31.90;;;;;;5043066;28;20445;-71
2022/06/17 01:56:15;;;;;;;17.40;7.80;;;20.50;31.50;;;;;;5048175;28;20465;-72
2022/06/17 01:59:08;;;;;;;12.60;8.37;;;20.50;33.20;;;;;;5046276;28;20430;-72
2022/06/17 02:01:36;;;;;;;14.10;8.20;;;20.30;31.00;;;;;;5002305;28;20427;-70
2022/06/17 02:04:12;;;;;;;13.40;8.63;;;20.30;31.00;;;;;;5042196;28;20429;-70
2022/06/17 02:06:54;;;;;;;11.53;8.30;;;20.40;32.00;;;;;;5031536;28;20441;-70
2022/06/17 02:09:20;;;;;;;19.37;8.70;;;20.30;31.80;;;;;;5043416;28;20440;-71
2022/06/17 02:11:47;;;;;;;13.73;8.50;;;20.20;31.70;;;;;;5039608;28;20468;-71
2022/06/17 02:14:13;;;;;;;15.60;9.40;;;20.20;32.50;;;;;;5032206;28;20178;-70
2022/06/17 02:16:52;;;;;;;12.80;8.90;;;20.30;33.00;;;;;;5031030;28;20544;-71
2022/06/17 02:19:19;;;;;;;13.50;7.83;;;20.00;33.30;;;;;;5038832;28;20414;-71
2022/06/17 02:21:52;;;;;;;13.80;8.73;;;19.90;32.10;;;;;;5047035;28;20444;-70
2022/06/17 02:24:19;;;;;;;15.10;8.07;;;19.90;32.10;;;;;;5046930;28;20465;-72
2022/06/17 02:26:46;;;;;;;16.90;8.27;;;19.90;32.30;;;;;;5051249;28;20960;-71
2022/06/17 02:29:13;;;;;;;11.90;8.40;;;19.80;33.00;;;;;;5049911;28;20438;-71
2022/06/17 02:31:41;;;;;;;15.20;8.50;;;19.80;33.70;;;;;;5048659;28;20547;-71
2022/06/17 02:34:09;;;;;;;16.27;8.53;;;20.00;32.20;;;;;;5041430;28;20479;-71
2022/06/17 02:36:54;;;;;;;13.23;9.03;;;20.10;32.40;;;;;;5031362;28;20501;-71
2022/06/17 02:39:20;;;;;;;12.10;8.07;;;;;;;;;;5040445;28;20436;-71
2022/06/17 02:41:50;;;;;;;18.30;8.73;;;20.20;30.70;;;;;;5041453;28;20512;-71
2022/06/17 02:44:26;;;;;;;11.83;7.93;;;20.30;30.80;;;;;;5047034;28;20450;-71
2022/06/17 02:46:56;;;;;;;13.17;7.80;;;20.40;30.30;;;;;;5042687;28;20901;-72
2022/06/17 02:49:25;;;;;;;10.07;7.73;;;20.50;30.80;;;;;;5041679;28;20437;-71
2022/06/17 02:51:51;;;;;;;11.30;8.20;;;20.60;31.50;;;;;;5049553;28;20578;-71
2022/06/17 02:54:36;;;;;;;13.40;8.83;;;20.30;31.90;;;;;;5050115;28;20834;-71
2022/06/17 02:57:02;;;;;;;11.87;8.50;;;20.00;32.20;;;;;;5040430;28;20426;-71
2022/06/17 02:59:42;;;;;;;10.80;8.07;;;19.80;33.40;;;;;;5049959;28;20911;-71
2022/06/17 03:02:24;;;;;;;14.17;7.77;;;19.80;33.10;;;;;;5045961;28;20440;-71
2022/06/17 03:04:51;;;;;;;11.50;7.60;;;19.80;32.50;;;;;;5046946;28;20428;-70
2022/06/17 03:07:19;;;;;;;8.40;6.67;;;19.30;31.80;;;;;;5050908;28;20518;-71
2022/06/17 03:09:45;;;;;;;12.23;6.77;;;19.70;32.60;;;;;;5050976;28;20413;-73
2022/06/17 03:12:13;;;;;;;9.37;6.70;;;;;;;;;;5049333;28;20469;-71
2022/06/17 03:14:45;;;;;;;9.97;6.83;;;19.40;33.60;;;;;;5049376;28;20425;-72
2022/06/17 03:17:15;;;;;;;9.73;7.07;;;19.60;32.70;;;;;;5042412;28;20526;-72
2022/06/17 03:19:41;;;;;;;9.60;6.60;;;19.70;32.50;;;;;;5049496;28;20429;-72
2022/06/17 03:22:11;;;;;;;14.43;8.00;;;19.60;34.00;;;;;;5049847;28;20421;-72
2022/06/17 03:24:55;;;;;;;8.90;6.87;;;19.60;33.00;;;;;;5047864;28;20518;-71
2022/06/17 03:27:38;;;;;;;12.20;7.00;;;20.00;31.20;;;;;;5052695;28;20605;-72
2022/06/17 03:30:05;;;;;;;7.87;6.23;;;19.70;32.30;;;;;;5043595;28;20420;-72
2022/06/17 03:32:38;;;;;;;7.50;6.50;;;19.50;32.20;;;;;;5047670;28;20488;-73
2022/06/17 03:35:04;;;;;;;8.47;6.93;;;;;;;;;;5048343;28;20445;-72
2022/06/17 03:37:46;;;;;;;8.73;6.50;;;19.50;32.80;;;;;;5047044;28;20430;-72
2022/06/17 03:40:21;;;;;;;14.17;7.40;;;19.60;34.00;;;;;;5049503;28;20432;-72
2022/06/17 03:43:08;;;;;;;8.93;7.23;;;19.60;33.90;;;;;;5044831;28;20485;-72
2022/06/17 03:45:49;;;;;;;12.70;7.63;;;19.10;33.40;;;;;;5038011;28;20951;-72
2022/06/17 03:48:44;;;;;;;11.80;8.30;;;19.20;33.10;;;;;;5054187;28;20408;-71
2022/06/17 03:51:16;;;;;;;13.13;9.07;;;19.10;33.70;;;;;;5040173;28;20439;-72
2022/06/17 03:53:44;;;;;;;13.00;9.23;;;19.10;33.70;;;;;;5033962;28;20399;-72
2022/06/17 03:56:25;;;;;;;15.90;10.17;;;19.20;33.80;;;;;;5050835;28;20891;-72
2022/06/17 03:58:53;;;;;;;11.70;9.83;;;19.10;33.40;;;;;;5048694;28;20434;-72
2022/06/17 04:01:34;;;;;;;16.40;10.30;;;18.70;34.00;;;;;;5039744;28;20437;-72
2022/06/17 04:04:03;;;;;;;13.83;9.30;;;18.90;35.20;;;;;;5041956;28;20884;-72
2022/06/17 04:06:33;;;;;;;16.60;10.07;;;19.10;34.20;;;;;;5050374;28;20452;-72
2022/06/17 04:09:12;;;;;;;16.33;9.80;;;19.30;34.50;;;;;;5044398;28;20443;-72
2022/06/17 04:11:39;;;;;;;11.40;8.80;;;19.40;34.40;;;;;;5042810;28;20994;-72
2022/06/17 04:14:15;;;;;;;10.90;9.03;;;19.50;34.10;;;;;;5045099;28;20418;-72
2022/06/17 04:16:53;;;;;;;14.77;9.10;;;19.50;34.40;;;;;;5046098;28;20472;-72
2022/06/17 04:19:23;;;;;;;15.00;8.83;;;19.40;33.40;;;;;;5049560;28;20787;-72
2022/06/17 04:21:49;;;;;;;14.53;9.70;;;19.50;33.60;;;;;;5041887;28;20450;-72
2022/06/17 04:24:20;;;;;;;20.73;9.53;;;19.50;33.10;;;;;;5039478;28;20969;-72
2022/06/17 04:26:48;;;;;;;13.60;10.17;;;;;;;;;;5041360;28;20534;-72
2022/06/17 04:29:29;;;;;;;20.67;10.40;;;19.70;33.80;;;;;;5033372;28;21039;-72
2022/06/17 04:32:28;;;;;;;15.43;10.00;;;19.70;33.40;;;;;;5039208;28;20683;-72
2022/06/17 04:34:53;;;;;;;12.47;8.70;;;19.80;33.80;;;;;;4970546;28;20447;-72
2022/06/17 04:37:21;;;;;;;14.30;8.60;;;19.90;33.50;;;;;;4968200;28;21017;-73
2022/06/17 04:39:58;;;;;;;12.20;8.93;;;19.90;33.80;;;;;;4952443;29;20217;-71
2022/06/17 04:42:40;;;;;;;16.20;9.63;;;19.90;33.30;;;;;;4953706;28;20953;-72
2022/06/17 04:45:21;;;;;;;13.23;8.90;;;19.90;32.90;;;;;;4969000;28;20479;-72
2022/06/17 04:47:46;;;;;;;17.43;9.60;;;19.80;32.30;;;;;;4971764;28;20907;-72
2022/06/17 04:50:15;;;;;;;12.23;9.30;;;20.00;33.50;;;;;;4970928;28;20446;-72
2022/06/17 04:52:43;;;;;;;12.40;9.53;;;20.10;32.70;;;;;;4957422;28;20591;-72
2022/06/17 04:55:20;;;;;;;12.20;9.70;;;20.00;33.70;;;;;;4964542;28;20504;-72
2022/06/17 04:57:47;;;;;;;13.33;9.73;;;20.10;32.90;;;;;;4970444;28;20494;-72
2022/06/17 05:00:20;;;;;;;18.70;10.80;;;20.20;34.00;;;;;;4969603;28;20485;-72
2022/06/17 05:02:47;;;;;;;20.20;10.60;;;20.20;33.50;;;;;;4970381;28;20440;-73
2022/06/17 05:05:24;;;;;;;18.97;10.30;;;20.50;32.00;;;;;;4969381;28;20511;-72
2022/06/17 05:07:53;;;;;;;12.40;9.23;;;20.40;32.70;;;;;;4970341;28;20448;-72
2022/06/17 05:10:24;;;;;;;13.33;9.57;;;20.30;32.90;;;;;;4970299;28;20432;-72
2022/06/17 05:12:57;;;;;;;15.87;10.13;;;20.40;32.80;;;;;;5043027;28;20476;-72
2022/06/17 05:15:24;;;;;;;14.17;9.60;;;20.70;30.10;;;;;;5039677;28;20490;-72
2022/06/17 05:17:50;;;;;;;15.13;9.30;;;;;;;;;;5044662;28;20450;-71
2022/06/17 05:20:21;;;;;;;14.80;8.03;;;20.50;31.50;;;;;;5045913;28;20429;-73
2022/06/17 05:22:57;;;;;;;9.90;7.50;;;20.50;32.20;;;;;;5046194;28;20426;-72
2022/06/17 05:25:27;;;;;;;9.23;6.97;;;20.60;31.60;;;;;;5042048;28;20452;-72
2022/06/17 05:27:52;;;;;;;10.10;7.50;;;20.60;30.40;;;;;;5045023;28;20795;-72
2022/06/17 05:30:18;;;;;;;8.70;6.50;;;20.80;32.40;;;;;;5040392;28;20416;-72
2022/06/17 05:32:49;;;;;;;12.27;8.17;;;20.80;33.20;;;;;;5033771;28;20485;-72
2022/06/17 05:35:15;;;;;;;9.97;7.20;;;20.80;32.40;;;;;;5047256;28;20936;-72
2022/06/17 05:37:41;;;;;;;28.47;7.00;;;21.00;30.00;;;;;;5048479;28;20430;-72
2022/06/17 05:40:08;;;;;;;12.43;7.70;;;21.10;30.90;;;;;;5042584;28;20437;-72
2022/06/17 05:42:36;;;;;;;10.67;7.50;;;21.20;29.20;;;;;;5045174;28;20182;-73
2022/06/17 05:45:02;;;;;;;16.50;7.23;;;21.10;29.70;;;;;;5041091;28;20980;-72
2022/06/17 05:47:28;;;;;;;10.77;7.60;;;21.30;29.80;;;;;;5042194;28;20437;-73
2022/06/17 05:49:53;;;;;;;8.87;7.00;;;21.50;27.80;;;;;;5046587;28;20443;-72
2022/06/17 05:52:19;;;;;;;8.93;6.77;;;21.70;29.30;;;;;;5051390;28;20197;-72
2022/06/17 05:54:46;;;;;;;19.57;7.57;;;21.60;29.40;;;;;;5044545;28;20531;-72
2022/06/17 05:57:11;;;;;;;12.03;7.00;;;21.50;28.10;;;;;;5041774;28;20281;-72
2022/06/17 05:59:37;;;;;;;11.90;7.97;;;21.30;28.00;;;;;;5038814;28;20519;-72
2022/06/17 06:02:03;;;;;;;15.23;7.40;;;20.80;29.30;;;;;;5044310;28;20195;-72
2022/06/17 06:04:31;;;;;;;14.33;6.97;;;21.20;29.00;;;;;;5042702;28;20176;-72
2022/06/17 06:06:57;;;;;;;16.73;7.43;;;21.20;26.90;;;;;;5042777;28;20452;-72
2022/06/17 06:09:22;;;;;;;9.50;7.67;;;20.80;27.70;;;;;;5043006;28;20429;-72
2022/06/17 06:11:48;;;;;;;13.70;7.20;;;21.20;28.30;;;;;;5042726;28;20470;-72
2022/06/17 06:14:14;;;;;;;15.30;6.90;;;21.40;26.80;;;;;;5046614;28;20231;-73
2022/06/17 06:16:39;;;;;;;13.13;7.10;;;21.70;26.70;;;;;;5044901;28;20221;-73
2022/06/17 06:19:06;;;;;;;13.03;6.70;;;;;;;;;;5049287;28;20179;-72
2022/06/17 06:21:32;;;;;;;11.10;8.33;;;;;;;;;;5042388;28;20183;-72
2022/06/17 06:23:57;;;;;;;12.37;8.10;;;21.70;28.00;;;;;;5045246;28;20420;-72
2022/06/17 06:26:24;;;;;;;12.47;6.90;;;;;;;;;;5041277;28;20968;-71
2022/06/17 06:28:50;;;;;;;11.60;7.07;;;20.80;29.20;;;;;;5047324;28;20225;-72
2022/06/17 06:31:16;;;;;;;10.97;6.50;;;21.20;27.90;;;;;;5040764;28;20433;-73
2022/06/17 06:33:42;;;;;;;10.70;7.03;;;;;;;;;;5040795;28;20433;-73
2022/06/17 06:36:08;;;;;;;8.63;6.20;;;;;;;;;;5045922;28;20210;-74
2022/06/17 06:38:34;;;;;;;8.63;6.30;;;;;;;;;;5040665;28;20426;-74
2022/06/17 06:41:02;;;;;;;8.83;7.00;;;20.50;28.20;;;;;;5043265;28;20432;-73
2022/06/17 06:43:28;;;;;;;9.30;6.53;;;;;;;;;;5036827;28;20443;-73
2022/06/17 06:45:54;;;;;;;10.87;6.60;;;;;;;;;;5040876;28;20463;-74
2022/06/17 06:48:26;;;;;;;9.30;6.43;;;20.90;27.80;;;;;;5037844;28;20430;-74
2022/06/17 06:50:52;;;;;;;8.97;6.00;;;21.50;26.80;;;;;;5042901;28;20438;-73
2022/06/17 06:53:17;;;;;;;10.40;6.47;;;21.50;26.60;;;;;;5044831;28;20465;-74
2022/06/17 06:55:43;;;;;;;12.13;7.50;;;22.00;25.90;;;;;;5048227;28;20453;-74
2022/06/17 06:58:18;;;;;;;13.13;6.23;;;21.90;26.00;;;;;;5050478;28;20620;-73
2022/06/17 07:00:46;;;;;;;8.90;6.43;;;22.20;25.90;;;;;;5043981;28;20191;-74
2022/06/17 07:03:14;;;;;;;8.90;6.20;;;22.50;25.30;;;;;;5050665;28;20438;-73
2022/06/17 07:05:45;;;;;;;7.70;6.27;;;22.80;26.40;;;;;;5047225;28;20466;-74
2022/06/17 07:08:13;;;;;;;9.20;6.20;;;22.90;25.50;;;;;;5045322;28;20924;-74
2022/06/17 07:10:40;;;;;;;11.10;6.27;;;22.00;26.30;;;;;;5047369;28;20436;-72
2022/06/17 07:13:08;;;;;;;11.43;6.40;;;21.80;26.90;;;;;;5043502;28;20978;-71
2022/06/17 07:15:38;;;;;;;7.80;6.27;;;21.40;27.30;;;;;;5045233;28;20448;-72
2022/06/17 07:18:10;;;;;;;11.23;6.60;;;21.70;27.10;;;;;;5045599;28;20522;-73
2022/06/17 07:20:42;;;;;;;8.77;6.00;;;21.70;27.50;;;;;;5044945;28;20438;-72
2022/06/17 07:23:14;;;;;;;11.00;6.37;;;22.30;26.90;;;;;;5043828;28;20520;-73
2022/06/17 07:25:41;;;;;;;8.97;6.13;;;22.20;27.50;;;;;;5042703;28;20457;-73
2022/06/17 07:28:07;;;;;;;13.10;7.33;;;22.70;26.70;;;;;;5040705;28;20926;-72
2022/06/17 07:30:34;;;;;;;8.83;6.70;;;22.40;26.60;;;;;;5042526;28;20426;-72
2022/06/17 07:33:00;;;;;;;8.90;6.37;;;22.50;27.00;;;;;;5054373;28;20495;-73
2022/06/17 07:35:26;;;;;;;9.37;6.97;;;23.20;27.60;;;;;;5048484;28;20460;-71
2022/06/17 07:40:36;;;;;;;13.30;7.10;;;22.50;26.30;;;;;;5043976;28;20478;-71
2022/06/17 07:43:03;;;;;;;10.10;7.10;;;22.60;26.50;;;;;;5044203;28;20808;-73
2022/06/17 07:45:31;;;;;;;12.73;7.40;;;22.70;26.90;;;;;;5045995;28;20464;-72
2022/06/17 07:47:58;;;;;;;10.80;7.30;;;23.40;26.50;;;;;;5052337;28;20411;-72
2022/06/17 07:50:33;;;;;;;12.63;6.90;;;23.60;24.70;;;;;;5052169;28;20912;-72
2022/06/17 07:52:59;;;;;;;10.33;5.97;;;23.70;24.70;;;;;;5050687;28;20967;-72
2022/06/17 07:55:25;;;;;;;11.27;6.53;;;23.80;24.80;;;;;;5041277;28;20442;-72
2022/06/17 07:57:51;;;;;;;10.00;6.70;;;23.60;24.80;;;;;;5030720;28;20182;-72
2022/06/17 08:00:19;;;;;;;10.40;7.27;;;23.90;24.50;;;;;;5039150;28;20812;-72
2022/06/17 08:02:45;;;;;;;10.57;5.60;;;24.20;23.70;;;;;;5039297;28;20529;-73
2022/06/17 08:05:10;;;;;;;10.27;6.50;;;24.60;24.20;;;;;;5050685;28;20524;-74
2022/06/17 08:07:36;;;;;;;9.83;6.33;;;24.70;24.80;;;;;;5043243;28;20176;-73
2022/06/17 08:10:02;;;;;;;13.00;6.30;;;24.90;23.10;;;;;;5042052;28;20188;-73
2022/06/17 08:12:28;;;;;;;7.93;6.33;;;24.90;23.30;;;;;;5035727;28;20188;-73
2022/06/17 08:14:56;;;;;;;13.23;6.40;;;24.70;23.40;;;;;;5043395;28;20952;-73
2022/06/17 08:17:23;;;;;;;12.10;6.67;;;24.70;22.60;;;;;;5034495;28;20738;-72
2022/06/17 08:19:51;;;;;;;15.17;7.03;;;24.10;23.40;;;;;;5043837;28;20448;-73
2022/06/17 08:22:18;;;;;;;14.53;6.57;;;24.60;22.50;;;;;;5049947;28;20423;-73
2022/06/17 08:24:44;;;;;;;11.33;6.10;;;24.90;22.70;;;;;;5047762;28;20415;-73
2022/06/17 08:27:09;;;;;;;38.17;6.30;;;24.90;23.10;;;;;;5045438;28;20474;-75
2022/06/17 08:29:35;;;;;;;13.00;6.40;;;25.20;24.70;;;;;;5042426;28;20545;-73
2022/06/17 08:34:45;;;;;;;20.00;7.20;;;25.70;23.10;;;;;;5043694;28;20693;-72
2022/06/17 08:37:13;;;;;;;11.10;6.57;;;25.20;22.90;;;;;;5045346;28;20454;-72
2022/06/17 08:39:40;;;;;;;11.10;6.10;;;25.00;22.00;;;;;;5040843;28;20585;-73
2022/06/17 08:42:28;;;;;;;12.13;7.13;;;24.40;22.40;;;;;;5047919;28;20475;-73
2022/06/17 08:45:17;;;;;;;8.30;5.97;;;24.90;22.70;;;;;;5042765;28;20416;-74
2022/06/17 08:47:55;;;;;;;8.70;6.10;;;25.10;22.80;;;;;;5051731;28;20413;-74
2022/06/17 08:50:32;;;;;;;19.30;6.30;;;25.60;22.70;;;;;;5051865;28;20772;-73
2022/06/17 08:53:36;;;;;;;11.13;6.13;;;25.70;21.80;;;;;;5051508;28;20562;-75
2022/06/17 08:56:20;;;;;;;14.07;5.80;;;26.00;22.50;;;;;;4956437;28;20461;-74
2022/06/17 08:58:52;;;;;;;12.93;6.23;;;26.20;22.20;;;;;;4952810;29;20422;-73
2022/06/17 09:01:42;;;;;;;9.33;5.57;;;26.30;21.60;;;;;;4952456;29;20395;-74
2022/06/17 09:04:37;;;;;;;12.97;5.90;;;26.00;21.90;;;;;;4952403;29;20541;-74
2022/06/17 09:07:15;;;;;;;9.20;5.67;;;26.00;21.20;;;;;;4969193;28;20656;-73
2022/06/17 09:09:43;;;;;;;9.00;5.90;;;26.00;22.20;;;;;;4971865;28;20398;-73
2022/06/17 09:12:35;;;;;;;9.20;5.63;;;26.20;23.40;;;;;;4969553;28;21071;-73
2022/06/17 09:15:25;;;;;;;11.83;5.80;;;25.80;20.50;;;;;;4971640;28;20402;-74
2022/06/17 09:18:06;;;;;;;7.70;5.37;;;26.20;21.30;;;;;;4971301;28;20429;-74
2022/06/17 09:20:41;;;;;;;10.03;5.97;;;26.70;21.20;;;;;;4971206;28;20943;-74
2022/06/17 09:23:10;;;;;;;9.33;5.97;;;26.70;20.00;;;;;;4970348;28;20428;-73
2022/06/17 09:25:40;;;;;;;6.70;5.50;;;26.90;21.00;;;;;;4970816;28;20433;-73
2022/06/17 09:28:12;;;;;;;7.50;5.57;;;27.00;19.30;;;;;;4971268;28;20428;-73
2022/06/17 09:30:44;;;;;;;8.80;5.50;;;29.10;21.00;;;;;;5017134;28;20932;-73
2022/06/17 09:33:17;;;;;;;13.73;5.27;;;26.10;20.60;;;;;;5046698;28;20449;-72
2022/06/17 09:35:57;;;;;;;9.67;5.53;;;25.90;20.70;;;;;;5033474;28;20497;-73
2022/06/17 09:38:35;;;;;;;12.13;5.47;;;25.50;21.90;;;;;;5032394;28;20937;-74
2022/06/17 09:41:09;;;;;;;20.03;5.70;;;25.90;21.40;;;;;;5032095;28;20422;-74
2022/06/17 09:43:47;;;;;;;10.10;5.80;;;26.60;22.00;;;;;;5031744;28;20410;-74
2022/06/17 09:46:31;;;;;;;11.00;5.17;;;27.20;21.00;;;;;;5050371;28;20967;-73
2022/06/17 09:49:15;;;;;;;11.30;4.83;;;26.70;22.20;;;;;;5052066;28;20951;-74
2022/06/17 09:52:04;;;;;;;10.27;5.77;;;27.10;21.30;;;;;;5051474;28;20441;-74
2022/06/17 09:54:39;;;;;;;12.00;5.57;;;27.20;20.00;;;;;;5010391;28;20417;-73
2022/06/17 09:57:12;;;;;;;11.50;5.10;;;25.90;18.70;;;;;;5050580;28;20449;-75
2022/06/17 09:59:44;;;;;;;7.97;5.13;;;26.80;18.70;;;;;;5051702;28;20520;-73
2022/06/17 10:02:27;;;;;;;14.63;5.33;;;26.90;18.20;;;;;;5051482;28;20402;-73
2022/06/17 10:05:01;;;;;;;10.03;5.73;;;26.70;18.90;;;;;;5051280;28;20406;-74
2022/06/17 10:07:39;;;;;;;7.90;5.00;;;26.00;18.70;;;;;;5050858;28;20440;-73
2022/06/17 10:10:32;;;;;;;10.60;5.20;;;25.70;20.00;;;;;;5051311;28;20414;-73
2022/06/17 10:13:03;;;;;;;9.10;5.10;;;26.10;20.50;;;;;;5031389;28;21105;-73
2022/06/17 10:18:59;;;;;;;6.00;4.40;;;28.10;20.60;;;;;;5031686;28;20401;-73
2022/06/17 10:21:42;;;;;;;5.70;4.47;;;28.80;17.50;;;;;;5037781;28;20418;-72
2022/06/17 10:24:30;;;;;;;6.23;4.40;;;28.80;17.50;;;;;;5051377;28;20401;-73
2022/06/17 10:27:12;;;;;;;12.17;4.80;;;28.60;16.40;;;;;;5051647;28;20449;-73
2022/06/17 10:29:54;;;;;;;11.70;4.70;;;28.30;15.60;;;;;;5051216;28;20461;-74
2022/06/17 10:32:21;;;;;;;9.30;5.03;;;26.60;17.00;;;;;;5042283;28;20466;-73
2022/06/17 10:34:52;;;;;;;8.73;4.90;;;26.40;18.80;;;;;;5031341;28;20411;-73
2022/06/17 10:37:18;;;;;;;9.50;5.00;;;26.40;18.60;;;;;;5034551;28;20421;-74
2022/06/17 10:39:45;;;;;;;7.43;4.47;;;26.80;17.80;;;;;;5035369;28;20501;-73
2022/06/17 10:42:16;;;;;;;7.33;4.43;;;27.20;16.60;;;;;;5042583;28;21024;-73
2022/06/17 10:44:46;;;;;;;9.33;4.47;;;27.10;17.00;;;;;;5041916;28;20517;-73
2022/06/17 10:47:27;;;;;;;7.23;4.30;;;26.50;16.10;;;;;;5044658;28;20466;-72
2022/06/17 10:50:01;;;;;;;7.10;4.10;;;26.60;16.80;;;;;;5045737;28;20930;-73
2022/06/17 10:52:40;;;;;;;7.03;4.40;;;26.80;16.80;;;;;;5048071;28;20499;-74
2022/06/17 10:55:15;;;;;;;8.63;4.20;;;27.60;16.40;;;;;;5045357;28;20516;-74
2022/06/17 10:58:11;;;;;;;7.97;3.97;;;28.60;17.10;;;;;;5049619;28;20912;-74
2022/06/17 11:01:01;;;;;;;6.80;3.70;;;29.20;15.20;;;;;;5040752;28;20501;-73
2022/06/17 11:03:39;;;;;;;5.10;3.50;;;29.90;12.10;;;;;;5040720;28;20433;-74
2022/06/17 11:06:18;;;;;;;5.60;3.90;;;30.10;11.80;;;;;;5055214;28;20432;-73
2022/06/17 11:08:49;;;;;;;6.27;4.03;;;30.30;13.80;;;;;;5044548;28;20446;-73
2022/06/17 11:14:04;;;;;;;5.70;3.50;;;30.70;13.30;;;;;;5043568;28;20481;-74
2022/06/17 11:16:40;;;;;;;5.30;3.97;;;30.60;13.40;;;;;;5053661;28;20918;-74
2022/06/17 11:19:13;;;;;;;4.87;4.10;;;29.70;12.50;;;;;;5042719;28;20422;-74
2022/06/17 11:21:45;;;;;;;5.00;3.83;;;29.50;13.60;;;;;;5054748;28;20391;-75
2022/06/17 11:24:25;;;;;;;12.83;3.93;;;29.90;15.80;;;;;;5054236;28;20379;-72
2022/06/17 11:27:01;;;;;;;5.40;3.60;;;28.30;14.20;;;;;;5053344;28;20575;-76
2022/06/17 11:29:37;;;;;;;4.47;3.70;;;27.60;15.40;;;;;;5044772;28;20473;-73
2022/06/17 11:32:27;;;;;;;5.60;3.90;;;28.90;17.90;;;;;;5054195;28;20479;-74
2022/06/17 11:34:58;;;;;;;3.37;3.23;;;29.60;13.10;;;;;;5045677;28;20434;-74
2022/06/17 11:37:26;;;;;;;6.67;3.23;;;31.20;13.30;;;;;;5045229;28;20524;-73
2022/06/17 11:40:16;;;;;;;5.80;3.30;;;30.70;10.90;;;;;;5048346;28;20776;-74
2022/06/17 11:42:53;;;;;;;3.60;3.07;;;30.80;11.60;;;;;;5043871;28;20434;-74
2022/06/17 11:45:22;;;;;;;11.80;3.30;;;31.80;10.00;;;;;;5042497;28;20407;-74
2022/06/17 11:47:55;;;;;;;12.03;3.30;;;31.10;12.70;;;;;;5042063;28;20534;-74
2022/06/17 11:50:30;;;;;;;9.13;3.10;;;31.00;11.10;;;;;;5045769;28;20943;-75
2022/06/17 11:53:17;;;;;;;3.00;2.80;;;32.40;11.00;;;;;;5052639;28;20468;-73
2022/06/17 11:55:46;;;;;;;5.23;3.20;;;33.10;11.50;;;;;;5041796;28;20438;-75
2022/06/17 11:58:13;;;;;;;3.30;2.90;;;33.40;9.30;;;;;;5051006;28;20432;-76
2022/06/17 12:00:43;;;;;;;5.07;2.87;;;33.70;11.70;;;;;;5039791;28;20812;-75
2022/06/17 12:03:09;;;;;;;12.07;2.90;;;33.90;9.40;;;;;;5044399;28;20423;-74
2022/06/17 12:05:38;;;;;;;3.40;2.93;;;33.80;11.40;;;;;;5049066;28;20469;-74
2022/06/17 12:08:13;;;;;;;7.00;3.27;;;33.90;9.90;;;;;;5044652;28;20544;-74
2022/06/17 12:10:46;;;;;;;3.90;2.83;;;34.50;8.20;;;;;;5041454;28;20417;-74
2022/06/17 12:13:21;;;;;;;3.53;2.73;;;35.40;7.30;;;;;;5047206;28;20465;-74
2022/06/17 12:16:24;;;;;;;2.80;2.50;;;35.20;7.00;;;;;;5037854;28;20489;-74
2022/06/17 12:18:54;;;;;;;2.80;2.63;;;34.20;5.90;;;;;;5044659;28;20422;-74
2022/06/17 12:21:19;;;;;;;5.00;2.70;;;32.40;7.70;;;;;;5042279;28;20486;-75
2022/06/17 12:24:12;;;;;;;3.03;2.20;;;32.50;8.40;;;;;;5042285;28;20529;-74
2022/06/17 12:27:16;;;;;;;5.23;2.80;;;33.50;8.20;;;;;;5033271;28;20652;-75
2022/06/17 12:30:01;;;;;;;3.80;2.53;;;34.70;6.70;;;;;;4990648;28;20943;-74
2022/06/17 12:32:33;;;;;;;7.77;2.60;;;35.40;6.10;;;;;;4986257;28;20633;-74
2022/06/17 12:35:39;;;;;;;3.70;2.70;;;33.20;5.40;;;;;;4990219;28;20421;-75
2022/06/17 12:38:18;;;;;;;3.67;2.83;;;31.20;7.20;;;;;;4991264;28;20453;-73
2022/06/17 12:40:59;;;;;;;6.67;2.57;;;31.60;11.80;;;;;;4996035;28;20880;-74
2022/06/17 12:43:37;;;;;;;5.73;2.43;;;32.00;9.40;;;;;;4984461;28;20439;-74
2022/06/17 12:46:12;;;;;;;2.77;2.50;;;32.40;6.50;;;;;;4981563;28;20933;-74
2022/06/17 12:48:40;;;;;;;4.00;2.30;;;32.90;9.20;;;;;;4994288;28;20446;-74
2022/06/17 12:54:23;;;;;;;3.23;2.40;;;33.40;6.40;;;;;;4991489;28;20444;-75
2022/06/17 12:57:11;;;;;;;5.50;2.73;;;33.40;8.20;;;;;;4988610;28;21327;-74
2022/06/17 12:59:49;;;;;;;4.87;2.40;;;33.90;6.50;;;;;;4991455;28;20437;-75
2022/06/17 13:02:33;;;;;;;2.53;2.10;;;34.40;6.50;;;;;;4989682;28;20444;-75
2022/06/17 13:05:02;;;;;;;4.40;2.33;;;32.20;5.60;;;;;;5045112;28;20882;-75
2022/06/17 13:07:43;;;;;;;2.33;2.13;;;31.60;8.70;;;;;;5038586;28;20441;-75
2022/06/17 13:13:41;;;;;;;3.13;2.20;;;32.20;8.10;;;;;;5040977;28;20840;-73
2022/06/17 13:16:30;;;;;;;4.40;2.30;;;33.00;7.80;;;;;;5041718;28;20557;-74
2022/06/17 13:19:23;;;;;;;7.37;2.27;;;33.20;8.20;;;;;;5040623;28;20400;-75
2022/06/17 13:22:15;;;;;;;4.23;2.40;;;33.90;7.20;;;;;;5031785;28;20481;-75
2022/06/17 13:25:03;;;;;;;3.13;2.17;;;34.30;7.20;;;;;;5038763;28;20422;-75
2022/06/17 13:27:39;;;;;;;2.00;1.90;;;34.00;3.90;;;;;;5052363;28;20456;-75
2022/06/17 13:30:13;;;;;;;3.23;2.10;;;33.10;5.60;;;;;;5052866;28;20755;-75
2022/06/17 13:32:44;;;;;;;2.67;2.17;;;33.10;6.30;;;;;;5051849;28;20437;-74
2022/06/17 13:35:27;;;;;;;3.83;2.13;;;33.40;6.40;;;;;;5051521;28;20989;-74
2022/06/17 13:38:17;;;;;;;2.70;2.00;;;33.40;6.40;;;;;;5052003;28;20933;-73